createdAt,value
2018-10-16T00:01:51.782Z,24.65
2018-10-16T00:04:20.383Z,16.37
2018-10-16T00:06:48.947Z,25.50
2018-10-16T00:09:17.571Z,15.53
2018-10-16T00:11:58.733Z,23.57
2018-10-16T00:14:27.309Z,21.75
2018-10-16T00:16:55.873Z,22.20
2018-10-16T00:19:24.461Z,18.42
2018-10-16T00:21:53.912Z,24.67
2018-10-16T00:24:22.689Z,18.82
2018-10-16T00:26:51.400Z,16.23
2018-10-16T00:29:20.505Z,29.57
2018-10-16T00:31:49.061Z,28.00
2018-10-16T00:34:17.621Z,24.18
2018-10-16T00:36:46.173Z,17.32
2018-10-16T00:39:15.964Z,17.55
2018-10-16T00:41:48.733Z,22.77
2018-10-16T00:44:17.300Z,16.40
2018-10-16T00:46:45.894Z,20.90
2018-10-16T00:49:14.479Z,23.98
2018-10-16T00:51:43.029Z,25.25
2018-10-16T00:54:11.595Z,23.52
2018-10-16T00:56:40.162Z,14.53
2018-10-16T00:59:08.935Z,18.62
2018-10-16T01:01:37.535Z,23.15
2018-10-16T01:04:07.241Z,14.45
2018-10-16T01:06:36.544Z,12.98
2018-10-16T01:09:11.669Z,20.30
2018-10-16T01:11:40.695Z,16.32
2018-10-16T01:14:08.941Z,18.87
2018-10-16T01:16:37.250Z,20.02
2018-10-16T01:19:05.771Z,20.60
2018-10-16T01:21:33.994Z,27.62
2018-10-16T01:24:02.178Z,23.83
2018-10-16T01:26:30.397Z,17.40
2018-10-16T01:28:58.653Z,17.17
2018-10-16T01:31:26.841Z,25.75
2018-10-16T01:33:55.053Z,22.65
2018-10-16T01:36:23.278Z,22.67
2018-10-16T01:38:51.507Z,21.42
2018-10-16T01:41:19.743Z,13.93
2018-10-16T01:43:47.969Z,21.00
2018-10-16T01:46:16.208Z,18.62
2018-10-16T01:48:44.439Z,19.67
2018-10-16T01:51:12.680Z,15.15
2018-10-16T01:53:40.886Z,19.90
2018-10-16T01:56:09.084Z,21.93
2018-10-16T01:58:37.306Z,23.15
2018-10-16T02:01:05.545Z,18.90
2018-10-16T02:03:33.766Z,15.03
2018-10-16T02:06:02.057Z,17.45
2018-10-16T02:08:30.292Z,17.07
2018-10-16T02:10:58.520Z,33.83
2018-10-16T02:13:26.744Z,21.00
2018-10-16T02:15:54.967Z,25.68
2018-10-16T02:18:23.186Z,19.42
2018-10-16T02:20:51.413Z,23.42
2018-10-16T02:23:19.671Z,23.40
2018-10-16T02:25:47.866Z,20.97
2018-10-16T02:28:16.123Z,18.80
2018-10-16T02:30:44.315Z,20.02
2018-10-16T02:33:12.565Z,28.38
2018-10-16T02:35:40.812Z,24.07
2018-10-16T02:38:09.056Z,27.52
2018-10-16T02:40:37.294Z,16.77
2018-10-16T02:43:05.823Z,17.20
2018-10-16T02:45:34.033Z,23.30
2018-10-16T02:48:02.293Z,17.25
2018-10-16T02:50:30.669Z,19.27
2018-10-16T02:52:58.893Z,21.80
2018-10-16T02:55:27.116Z,12.63
2018-10-16T02:57:55.348Z,21.55
2018-10-16T03:00:23.566Z,15.83
2018-10-16T03:02:51.776Z,21.25
2018-10-16T03:05:19.980Z,17.95
2018-10-16T03:07:48.225Z,22.42
2018-10-16T03:10:16.445Z,16.32
2018-10-16T03:12:44.663Z,14.50
2018-10-16T03:15:13.629Z,16.62
2018-10-16T03:17:42.005Z,20.23
2018-10-16T03:20:11.195Z,21.97
2018-10-16T03:22:39.999Z,16.02
2018-10-16T03:25:09.138Z,17.42
2018-10-16T03:27:37.569Z,23.60
2018-10-16T03:30:06.438Z,12.80
2018-10-16T03:32:34.679Z,20.95
2018-10-16T03:35:02.960Z,17.85
2018-10-16T03:37:31.157Z,17.37
2018-10-16T03:39:59.458Z,19.00
2018-10-16T03:42:27.662Z,13.75
2018-10-16T03:44:55.929Z,31.17
2018-10-16T03:47:24.555Z,17.37
2018-10-16T03:49:52.793Z,12.35
2018-10-16T03:52:21.017Z,17.70
2018-10-16T03:54:49.266Z,23.70
2018-10-16T03:57:17.551Z,23.70
2018-10-16T03:59:45.825Z,20.50
2018-10-16T04:02:14.033Z,11.68
2018-10-16T04:04:42.260Z,25.95
2018-10-16T04:07:10.484Z,16.50
2018-10-16T04:09:38.676Z,15.00
2018-10-16T04:12:06.904Z,24.85
2018-10-16T04:14:35.136Z,24.55
2018-10-16T04:17:03.399Z,21.90
2018-10-16T04:19:31.597Z,20.43
2018-10-16T04:22:12.916Z,17.23
2018-10-16T04:24:41.210Z,66.25
2018-10-16T04:27:09.419Z,43.23
2018-10-16T04:29:37.651Z,26.87
2018-10-16T04:32:05.875Z,16.55
2018-10-16T04:34:34.086Z,20.55
2018-10-16T04:37:02.302Z,23.57
2018-10-16T04:39:30.525Z,19.80
2018-10-16T04:41:58.761Z,22.35
2018-10-16T04:44:26.971Z,23.10
2018-10-16T04:46:55.204Z,21.45
2018-10-16T04:49:23.449Z,19.98
2018-10-16T04:51:51.674Z,30.55
2018-10-16T04:54:19.915Z,22.17
2018-10-16T04:56:48.148Z,30.35
2018-10-16T04:59:16.407Z,20.77
2018-10-16T05:01:44.632Z,28.27
2018-10-16T05:04:12.957Z,23.75
2018-10-16T05:06:41.149Z,20.30
2018-10-16T05:09:09.658Z,22.22
2018-10-16T05:11:43.280Z,21.95
2018-10-16T05:14:11.531Z,29.52
2018-10-16T05:16:39.746Z,23.10
2018-10-16T05:19:08.030Z,22.17
2018-10-16T05:21:36.222Z,24.72
2018-10-16T05:24:04.823Z,17.23
2018-10-16T05:26:33.042Z,18.32
2018-10-16T05:29:01.296Z,17.75
2018-10-16T05:31:29.724Z,27.50
2018-10-16T05:33:57.837Z,20.00
2018-10-16T05:36:26.282Z,20.55
2018-10-16T05:38:54.524Z,19.65
2018-10-16T05:41:22.856Z,21.90
2018-10-16T05:43:51.107Z,22.90
2018-10-16T05:46:19.374Z,19.92
2018-10-16T05:48:47.650Z,22.40
2018-10-16T05:51:15.963Z,24.23
2018-10-16T05:53:45.061Z,24.15
2018-10-16T05:56:13.309Z,24.27
2018-10-16T05:58:41.551Z,25.62
2018-10-16T06:01:09.759Z,23.00
2018-10-16T06:03:38.003Z,28.83
2018-10-16T06:06:06.260Z,20.45
2018-10-16T06:08:34.507Z,32.08
2018-10-16T06:11:02.738Z,27.60
2018-10-16T06:13:30.964Z,28.23
2018-10-16T06:15:59.214Z,21.42
2018-10-16T06:18:27.430Z,18.10
2018-10-16T06:20:55.671Z,21.50
2018-10-16T06:23:23.910Z,14.55
2018-10-16T06:25:52.159Z,20.85
2018-10-16T06:28:22.014Z,25.55
2018-10-16T06:30:50.249Z,20.45
2018-10-16T06:33:33.077Z,22.73
2018-10-16T06:36:01.331Z,32.90
2018-10-16T06:38:29.557Z,21.42
2018-10-16T06:40:57.896Z,19.48
2018-10-16T06:43:26.029Z,20.12
2018-10-16T06:45:54.253Z,19.32
2018-10-16T06:48:22.751Z,40.40
2018-10-16T06:50:50.798Z,23.30
2018-10-16T06:53:19.042Z,26.93
2018-10-16T06:55:47.273Z,20.45
2018-10-16T06:58:15.505Z,21.23
2018-10-16T07:00:43.743Z,21.80
2018-10-16T07:03:11.962Z,19.95
2018-10-16T07:05:40.214Z,25.02
2018-10-16T07:08:08.459Z,21.57
2018-10-16T07:10:36.702Z,18.90
2018-10-16T07:13:04.950Z,30.10
2018-10-16T07:15:33.180Z,18.20
2018-10-16T07:18:01.401Z,23.40
2018-10-16T07:20:29.674Z,17.67
2018-10-16T07:22:57.908Z,26.12
2018-10-16T07:25:26.142Z,19.25
2018-10-16T07:27:54.434Z,20.48
2018-10-16T07:30:22.671Z,26.50
2018-10-16T07:32:50.906Z,16.42
2018-10-16T07:35:19.140Z,22.77
2018-10-16T07:37:47.453Z,16.37
2018-10-16T07:40:15.665Z,23.98
2018-10-16T07:42:43.896Z,16.93
2018-10-16T07:45:12.112Z,20.37
2018-10-16T07:47:40.385Z,19.30
2018-10-16T07:50:09.607Z,18.02
2018-10-16T07:52:37.939Z,17.10
2018-10-16T07:55:07.417Z,29.30
2018-10-16T07:57:35.687Z,19.15
2018-10-16T08:00:03.958Z,23.70
2018-10-16T08:02:32.186Z,22.73
2018-10-16T08:05:00.501Z,30.85
2018-10-16T08:07:28.772Z,21.42
2018-10-16T08:09:57.025Z,26.02
2018-10-16T08:12:25.249Z,29.95
2018-10-16T08:14:53.561Z,25.50
2018-10-16T08:17:21.833Z,23.22
2018-10-16T08:19:50.061Z,26.87
2018-10-16T08:22:18.288Z,25.45
2018-10-16T08:24:46.511Z,32.13
2018-10-16T08:27:14.751Z,18.25
2018-10-16T08:29:42.957Z,22.07
2018-10-16T08:32:11.193Z,22.05
2018-10-16T08:34:39.414Z,22.35
2018-10-16T08:37:09.258Z,21.27
2018-10-16T08:39:38.515Z,19.00
2018-10-16T08:42:12.743Z,22.00
2018-10-16T08:44:46.546Z,33.25
2018-10-16T08:47:20.350Z,20.77
2018-10-16T08:49:54.115Z,27.00
2018-10-16T08:52:22.331Z,27.67
2018-10-16T08:54:50.604Z,21.42
2018-10-16T08:57:18.859Z,30.70
2018-10-16T08:59:47.143Z,17.05
2018-10-16T09:03:44.584Z,27.05
2018-10-16T09:06:12.841Z,20.43
2018-10-16T09:08:41.202Z,22.75
2018-10-16T09:11:09.442Z,26.57
2018-10-16T09:13:37.741Z,21.62
2018-10-16T09:16:05.989Z,29.87
2018-10-16T09:18:34.245Z,28.85
2018-10-16T09:21:02.494Z,19.07
2018-10-16T09:23:31.103Z,18.12
2018-10-16T09:25:59.696Z,25.20
2018-10-16T09:28:28.243Z,23.62
2018-10-16T09:30:57.062Z,19.95
2018-10-16T09:33:25.668Z,25.05
2018-10-16T09:35:54.236Z,25.10
2018-10-16T09:38:22.825Z,30.05
2018-10-16T09:40:51.444Z,19.85
2018-10-16T09:43:20.105Z,28.80
2018-10-16T09:45:48.710Z,23.45
2018-10-16T09:48:17.315Z,24.87
2018-10-16T09:50:45.903Z,23.20
2018-10-16T09:53:14.461Z,22.30
2018-10-16T09:55:42.996Z,27.17
2018-10-16T09:58:11.656Z,29.12
2018-10-16T10:00:45.728Z,21.20
2018-10-16T10:03:14.304Z,24.55
2018-10-16T10:05:42.864Z,32.00
2018-10-16T10:08:11.497Z,26.77
2018-10-16T10:10:40.039Z,21.62
2018-10-16T10:13:08.658Z,22.67
2018-10-16T10:15:37.239Z,17.60
2018-10-16T10:18:06.006Z,25.65
2018-10-16T10:20:34.679Z,22.17
2018-10-16T10:23:03.263Z,23.00
2018-10-16T10:25:31.887Z,20.23
2018-10-16T10:28:00.496Z,17.02
2018-10-16T10:30:29.080Z,27.90
2018-10-16T10:32:57.648Z,25.30
2018-10-16T10:35:26.259Z,20.95
2018-10-16T10:37:54.836Z,25.90
2018-10-16T10:40:23.435Z,23.00
2018-10-16T10:42:52.022Z,21.25
2018-10-16T10:45:20.646Z,22.70
2018-10-16T10:47:49.220Z,20.37
2018-10-16T10:50:18.008Z,23.55
2018-10-16T10:52:46.451Z,26.50
2018-10-16T10:55:15.018Z,27.93
2018-10-16T10:57:43.577Z,26.90
2018-10-16T11:00:13.756Z,19.10
2018-10-16T11:02:44.068Z,21.25
2018-10-16T11:05:12.706Z,26.80
2018-10-16T11:07:41.291Z,28.95
2018-10-16T11:10:12.451Z,28.10
2018-10-16T11:12:41.842Z,18.67
2018-10-16T11:15:10.520Z,27.13
2018-10-16T11:17:39.641Z,31.03
2018-10-16T11:20:09.925Z,18.60
2018-10-16T11:22:38.623Z,32.87
2018-10-16T11:25:08.261Z,24.43
2018-10-16T11:27:37.159Z,33.17
2018-10-16T11:30:09.138Z,19.00
2018-10-16T11:32:37.692Z,18.30
2018-10-16T11:35:07.114Z,15.27
2018-10-16T11:37:36.006Z,22.73
2018-10-16T11:40:04.789Z,19.13
2018-10-16T11:42:33.400Z,24.45
2018-10-16T11:45:02.359Z,20.17
2018-10-16T11:47:31.899Z,20.48
2018-10-16T11:50:00.544Z,18.03
2018-10-16T11:52:29.097Z,33.40
2018-10-16T11:54:57.665Z,21.10
2018-10-16T11:57:26.386Z,18.92
2018-10-16T11:59:54.949Z,26.63
2018-10-16T12:02:23.563Z,19.73
2018-10-16T12:04:52.424Z,25.03
2018-10-16T12:07:20.987Z,18.90
2018-10-16T12:09:49.541Z,24.20
2018-10-16T12:12:18.095Z,20.13
2018-10-16T12:14:46.636Z,18.27
2018-10-16T12:17:23.376Z,18.27
2018-10-16T12:20:55.928Z,23.27
2018-10-16T12:23:24.521Z,20.30
2018-10-16T12:25:53.063Z,20.93
2018-10-16T12:28:21.625Z,22.10
2018-10-16T12:30:50.210Z,18.73
2018-10-16T12:33:18.779Z,17.10
2018-10-16T12:35:47.347Z,19.83
2018-10-16T12:38:16.000Z,21.87
2018-10-16T12:40:44.544Z,19.40
2018-10-16T12:43:13.188Z,27.53
2018-10-16T12:45:41.728Z,16.53
2018-10-16T12:48:10.331Z,20.30
2018-10-16T12:50:38.916Z,22.47
2018-10-16T12:53:08.214Z,16.27
2018-10-16T12:55:36.706Z,17.40
2018-10-16T12:58:05.845Z,14.40
2018-10-16T13:00:34.444Z,20.17
2018-10-16T13:03:03.091Z,14.60
2018-10-16T13:05:31.624Z,17.60
2018-10-16T13:08:00.325Z,18.63
2018-10-16T13:10:28.887Z,19.10
2018-10-16T13:12:57.434Z,18.70
2018-10-16T13:15:26.024Z,17.53
2018-10-16T13:17:54.584Z,22.00
2018-10-16T13:20:23.141Z,23.03
2018-10-16T13:22:51.783Z,20.40
2018-10-16T13:25:20.329Z,17.60
2018-10-16T13:27:48.897Z,18.13
2018-10-16T13:30:18.561Z,16.43
2018-10-16T13:32:48.098Z,22.80
2018-10-16T13:35:17.974Z,19.33
2018-10-16T13:37:47.089Z,18.40
2018-10-16T13:40:16.187Z,20.23
2018-10-16T13:42:44.986Z,20.67
2018-10-16T13:45:14.881Z,29.17
2018-10-16T13:47:43.469Z,17.20
2018-10-16T13:50:14.534Z,20.63
2018-10-16T13:52:43.586Z,16.05
2018-10-16T13:55:12.482Z,37.95
2018-10-16T13:57:41.639Z,16.37
2018-10-16T14:00:20.461Z,15.50
2018-10-16T14:02:52.211Z,19.00
2018-10-16T14:05:20.873Z,22.13
2018-10-16T14:07:49.555Z,24.92
2018-10-16T14:10:18.500Z,19.37
2018-10-16T14:12:48.031Z,32.08
2018-10-16T14:15:17.081Z,19.52
2018-10-16T14:17:45.686Z,18.85
2018-10-16T14:20:14.333Z,30.15
2018-10-16T14:22:43.391Z,36.90
2018-10-16T14:25:13.166Z,36.43
2018-10-16T14:27:42.217Z,27.58
2018-10-16T14:30:14.160Z,28.40
2018-10-16T14:32:43.226Z,27.70
2018-10-16T14:35:12.339Z,24.52
2018-10-16T14:37:41.142Z,21.55
2018-10-16T14:40:11.917Z,22.20
2018-10-16T14:42:40.400Z,21.60
2018-10-16T14:45:10.175Z,17.37
2018-10-16T14:47:38.756Z,23.92
2018-10-16T14:50:08.151Z,32.43
2018-10-16T14:52:36.778Z,25.90
2018-10-16T14:55:05.967Z,20.63
2018-10-16T14:57:35.040Z,23.93
2018-10-16T15:00:03.819Z,26.85
2018-10-16T15:02:32.389Z,19.48
2018-10-16T15:05:01.031Z,20.53
2018-10-16T15:07:29.603Z,19.23
2018-10-16T15:09:58.283Z,25.90
2018-10-16T15:12:30.895Z,18.83
2018-10-16T15:15:00.164Z,17.53
2018-10-16T15:17:29.492Z,26.57
2018-10-16T15:19:58.414Z,21.87
2018-10-16T15:22:27.382Z,20.80
2018-10-16T15:24:55.994Z,20.33
2018-10-16T15:27:24.563Z,19.80
2018-10-16T15:29:53.583Z,21.83
2018-10-16T15:32:22.159Z,22.60
2018-10-16T15:34:51.853Z,33.73
2018-10-16T15:37:20.451Z,20.23
2018-10-16T15:39:49.207Z,24.83
2018-10-16T15:42:17.755Z,19.00
2018-10-16T15:44:46.324Z,29.07
2018-10-16T15:47:14.933Z,20.75
2018-10-16T15:49:43.530Z,20.57
2018-10-16T15:52:12.200Z,22.23
2018-10-16T15:54:40.729Z,16.55
2018-10-16T15:57:09.305Z,17.33
2018-10-16T15:59:37.877Z,23.10
2018-10-16T16:02:06.498Z,21.20
2018-10-16T16:04:35.108Z,21.40
2018-10-16T16:07:03.716Z,16.30
2018-10-16T16:09:32.290Z,16.70
2018-10-16T16:12:00.920Z,16.80
2018-10-16T16:14:29.681Z,20.25
2018-10-16T16:16:58.541Z,18.48
2018-10-16T16:19:27.476Z,24.50
2018-10-16T16:21:56.167Z,19.55
2018-10-16T16:24:24.736Z,19.60
2018-10-16T16:26:53.302Z,24.23
2018-10-16T16:29:21.868Z,21.40
2018-10-16T16:31:50.555Z,20.72
2018-10-16T16:34:19.090Z,32.00
2018-10-16T16:36:47.657Z,22.77
2018-10-16T16:39:16.371Z,24.45
2018-10-16T16:41:44.961Z,27.65
2018-10-16T16:44:13.592Z,23.47
2018-10-16T16:46:42.073Z,34.25
2018-10-16T16:49:10.675Z,48.28
2018-10-16T16:51:39.309Z,45.65
2018-10-16T16:54:07.859Z,32.95
2018-10-16T16:56:36.431Z,28.07
2018-10-16T16:59:05.251Z,25.02
2018-10-16T17:01:33.886Z,31.02
2018-10-16T17:04:02.504Z,24.57
2018-10-16T17:06:31.044Z,25.85
2018-10-16T17:08:59.597Z,34.83
2018-10-16T17:11:28.158Z,28.87
2018-10-16T17:13:56.776Z,34.85
2018-10-16T17:16:25.350Z,35.52
2018-10-16T17:18:53.899Z,35.45
2018-10-16T17:21:22.488Z,36.15
2018-10-16T17:23:51.061Z,33.75
2018-10-16T17:26:21.445Z,34.73
2018-10-16T17:28:49.815Z,33.90
2018-10-16T17:31:18.367Z,33.60
2018-10-16T17:33:46.952Z,35.10
2018-10-16T17:36:15.546Z,35.80
2018-10-16T17:38:44.100Z,41.83
2018-10-16T17:41:12.657Z,46.55
2018-10-16T17:43:41.509Z,43.63
2018-10-16T17:46:10.148Z,46.85
2018-10-16T17:48:38.780Z,40.55
2018-10-16T17:51:07.453Z,39.27
2018-10-16T17:53:35.982Z,38.88
2018-10-16T17:56:04.950Z,37.25
2018-10-16T17:58:33.535Z,39.50
2018-10-16T18:01:02.155Z,37.45
2018-10-16T18:03:30.698Z,36.45
2018-10-16T18:05:59.445Z,33.65
2018-10-16T18:08:27.999Z,34.98
2018-10-16T18:10:56.611Z,30.50
2018-10-16T18:13:25.174Z,33.23
2018-10-16T18:15:53.777Z,35.88
2018-10-16T18:18:22.372Z,30.40
2018-10-16T18:20:50.983Z,34.85
2018-10-16T18:23:19.523Z,28.50
2018-10-16T18:25:48.117Z,29.00
2018-10-16T18:28:16.677Z,34.13
2018-10-16T18:30:45.259Z,34.15
2018-10-16T18:33:13.893Z,34.48
2018-10-16T18:35:42.421Z,32.55
2018-10-16T18:38:10.994Z,38.92
2018-10-16T18:40:39.547Z,40.60
2018-10-16T18:43:08.100Z,36.00
2018-10-16T18:45:36.686Z,39.65
2018-10-16T18:48:05.234Z,28.85
2018-10-16T18:50:33.821Z,41.65
2018-10-16T18:53:02.717Z,34.33
2018-10-16T18:55:31.277Z,43.30
2018-10-16T18:57:59.896Z,38.67
2018-10-16T19:00:28.457Z,38.17
2018-10-16T19:02:57.035Z,43.73
2018-10-16T19:05:25.342Z,45.73
2018-10-16T19:07:54.005Z,38.90
2018-10-16T19:10:22.656Z,43.68
2018-10-16T19:12:51.239Z,48.45
2018-10-16T19:15:19.855Z,48.63
2018-10-16T19:17:48.414Z,51.37
2018-10-16T19:20:17.604Z,42.83
2018-10-16T19:22:46.903Z,45.90
2018-10-16T19:25:17.504Z,45.48
2018-10-16T19:27:46.092Z,47.48
2018-10-16T19:30:14.673Z,43.50
2018-10-16T19:32:43.263Z,39.35
2018-10-16T19:35:13.145Z,49.35
2018-10-16T19:37:41.885Z,40.73
2018-10-16T19:40:10.471Z,39.13
2018-10-16T19:42:39.009Z,34.20
2018-10-16T19:45:08.189Z,32.05
2018-10-16T19:47:37.007Z,38.13
2018-10-16T19:50:06.132Z,34.20
2018-10-16T19:52:34.691Z,53.83
2018-10-16T19:55:03.247Z,36.80
2018-10-16T19:57:31.811Z,36.63
2018-10-16T20:00:00.787Z,40.70
2018-10-16T20:02:29.384Z,43.00
2018-10-16T20:04:57.925Z,33.78
2018-10-16T20:07:26.490Z,38.35
2018-10-16T20:09:55.083Z,33.58
2018-10-16T20:12:23.613Z,43.45
2018-10-16T20:14:52.149Z,33.88
2018-10-16T20:17:20.727Z,35.50
2018-10-16T20:19:49.290Z,35.20
2018-10-16T20:22:17.853Z,31.40
2018-10-16T20:24:46.462Z,32.63
2018-10-16T20:27:15.006Z,30.20
2018-10-16T20:29:43.579Z,36.35
2018-10-16T20:32:12.117Z,42.55
2018-10-16T20:34:40.723Z,27.10
2018-10-16T20:37:09.436Z,37.53
2018-10-16T20:39:37.959Z,45.78
2018-10-16T20:42:06.586Z,32.58
2018-10-16T20:44:35.092Z,30.62
2018-10-16T20:47:03.661Z,36.08
2018-10-16T20:49:32.221Z,35.80
2018-10-16T20:52:00.846Z,37.60
2018-10-16T20:54:29.385Z,33.15
2018-10-16T20:56:57.994Z,29.23
2018-10-16T20:59:26.512Z,34.55
2018-10-16T21:01:55.081Z,33.15
2018-10-16T21:04:23.738Z,31.02
2018-10-16T21:06:52.523Z,31.65
2018-10-16T21:09:20.893Z,30.37
2018-10-16T21:11:49.485Z,30.40
2018-10-16T21:14:18.038Z,28.92
2018-10-16T21:16:46.577Z,29.55
2018-10-16T21:19:15.256Z,29.37
2018-10-16T21:21:43.756Z,26.05
2018-10-16T21:24:12.327Z,29.07
2018-10-16T21:26:40.898Z,28.80
2018-10-16T21:29:09.519Z,26.37
2018-10-16T21:31:38.098Z,33.50
2018-10-16T21:34:06.954Z,29.18
2018-10-16T21:36:35.512Z,24.15
2018-10-16T21:39:05.362Z,29.65
2018-10-16T21:41:33.911Z,28.75
2018-10-16T21:44:02.461Z,26.90
2018-10-16T21:46:30.975Z,27.13
2018-10-16T21:48:59.624Z,24.18
2018-10-16T21:51:28.245Z,26.30
2018-10-16T21:53:56.795Z,27.20
2018-10-16T21:56:25.332Z,29.70
2018-10-16T21:58:53.933Z,27.50
2018-10-16T22:01:26.695Z,31.50
2018-10-16T22:03:55.286Z,38.05
2018-10-16T22:06:23.858Z,32.80
2018-10-16T22:08:52.444Z,27.55
2018-10-16T22:11:21.053Z,35.17
2018-10-16T22:13:49.738Z,27.75
2018-10-16T22:16:18.266Z,27.30
2018-10-16T22:18:46.864Z,27.75
2018-10-16T22:21:15.437Z,44.42
2018-10-16T22:23:44.051Z,34.23
2018-10-16T22:26:12.601Z,32.40
2018-10-16T22:28:41.233Z,35.65
2018-10-16T22:31:09.846Z,33.10
2018-10-16T22:33:38.377Z,25.62
2018-10-16T22:36:06.926Z,40.90
2018-10-16T22:38:35.479Z,45.23
2018-10-16T22:41:04.098Z,34.03
2018-10-16T22:43:32.605Z,28.85
2018-10-16T22:46:01.162Z,40.28
2018-10-16T22:48:29.798Z,29.48
2018-10-16T22:50:58.404Z,39.48
2018-10-16T22:53:26.950Z,34.18
2018-10-16T22:55:55.507Z,35.05
2018-10-16T22:58:24.053Z,41.02
2018-10-16T23:00:52.626Z,29.40
2018-10-16T23:03:21.168Z,35.23
2018-10-16T23:05:49.719Z,37.03
2018-10-16T23:08:18.269Z,29.72
2018-10-16T23:10:46.810Z,38.63
2018-10-16T23:13:15.427Z,29.40
2018-10-16T23:15:43.947Z,45.08
2018-10-16T23:18:12.494Z,39.13
2018-10-16T23:20:41.084Z,41.30
2018-10-16T23:23:09.631Z,34.95
2018-10-16T23:25:38.184Z,31.12
2018-10-16T23:28:06.735Z,28.60
2018-10-16T23:30:35.327Z,33.67
2018-10-16T23:33:03.888Z,31.95
2018-10-16T23:35:32.477Z,34.15
2018-10-16T23:38:01.033Z,28.07
2018-10-16T23:40:29.591Z,28.85
2018-10-16T23:42:58.175Z,30.08
2018-10-16T23:45:26.720Z,31.70
2018-10-16T23:47:55.283Z,29.92
2018-10-16T23:50:23.832Z,29.50
2018-10-16T23:52:52.411Z,34.83
2018-10-16T23:55:20.955Z,24.25
2018-10-16T23:57:49.503Z,36.80
